createdAt,value
2023-01-26T00:01:19.180Z,3.57
2023-01-26T00:03:46.686Z,3.80
2023-01-26T00:06:16.233Z,3.97
2023-01-26T00:08:46.214Z,4.30
2023-01-26T00:11:15.966Z,4.49
2023-01-26T00:13:43.173Z,4.66
2023-01-26T00:16:12.326Z,4.76
2023-01-26T00:18:40.244Z,4.67
2023-01-26T00:21:08.831Z,4.23
2023-01-26T00:23:36.285Z,4.33
2023-01-26T00:26:06.526Z,4.78
2023-01-26T00:28:33.421Z,4.45
2023-01-26T00:31:25.443Z,4.48
2023-01-26T00:33:54.091Z,4.25
2023-01-26T00:36:21.603Z,3.18
2023-01-26T00:38:48.674Z,3.65
2023-01-26T00:41:33.999Z,3.25
2023-01-26T00:44:01.610Z,3.04
2023-01-26T00:46:28.881Z,3.62
2023-01-26T00:48:55.993Z,3.94
2023-01-26T00:51:23.027Z,2.85
2023-01-26T00:53:49.927Z,3.52
2023-01-26T00:56:16.870Z,3.58
2023-01-26T00:58:45.661Z,3.80
2023-01-26T01:01:12.792Z,3.83
2023-01-26T01:03:42.544Z,4.11
2023-01-26T01:06:09.397Z,4.12
2023-01-26T01:08:36.334Z,4.42
2023-01-26T01:11:09.003Z,4.58
2023-01-26T01:13:36.047Z,4.16
2023-01-26T01:16:11.030Z,4.19
2023-01-26T01:18:39.408Z,4.48
2023-01-26T01:21:11.444Z,4.37
2023-01-26T01:23:38.812Z,4.10
2023-01-26T01:26:06.470Z,4.35
2023-01-26T01:28:35.049Z,4.66
2023-01-26T01:31:07.131Z,4.63
2023-01-26T01:33:34.174Z,4.66
2023-01-26T01:36:03.544Z,4.25
2023-01-26T01:38:31.221Z,3.72
2023-01-26T01:40:58.359Z,3.56
2023-01-26T01:43:26.948Z,3.71
2023-01-26T01:45:54.827Z,3.64
2023-01-26T01:48:31.367Z,4.17
2023-01-26T01:51:04.388Z,4.07
2023-01-26T01:53:39.490Z,3.56
2023-01-26T01:56:12.970Z,3.55
2023-01-26T01:58:43.249Z,3.83
2023-01-26T02:01:10.866Z,3.57
2023-01-26T02:03:39.255Z,3.21
2023-01-26T02:06:19.069Z,3.16
2023-01-26T02:08:49.470Z,3.15
2023-01-26T02:11:24.897Z,3.34
2023-01-26T02:13:54.787Z,3.75
2023-01-26T02:16:21.739Z,3.53
2023-01-26T02:18:48.781Z,3.17
2023-01-26T02:21:21.142Z,3.17
2023-01-26T02:24:11.358Z,3.12
2023-01-26T02:26:38.796Z,3.47
2023-01-26T02:29:09.589Z,3.54
2023-01-26T02:31:41.743Z,3.67
2023-01-26T02:34:08.728Z,3.31
2023-01-26T02:36:37.269Z,3.84
2023-01-26T02:39:23.383Z,3.77
2023-01-26T02:42:10.257Z,3.38
2023-01-26T02:44:41.023Z,2.84
2023-01-26T02:47:13.765Z,3.41
2023-01-26T02:49:47.514Z,4.05
2023-01-26T02:52:21.163Z,4.01
2023-01-26T02:55:13.935Z,3.77
2023-01-26T02:57:41.446Z,4.11
2023-01-26T03:00:14.591Z,4.16
2023-01-26T03:02:42.296Z,4.07
2023-01-26T03:05:09.618Z,3.73
2023-01-26T03:07:36.670Z,3.71
2023-01-26T03:10:04.695Z,3.75
2023-01-26T03:12:31.903Z,3.61
2023-01-26T03:15:17.903Z,3.92
2023-01-26T03:17:45.087Z,3.81
2023-01-26T03:20:30.572Z,3.93
2023-01-26T03:23:16.192Z,3.95
2023-01-26T03:26:02.345Z,3.89
2023-01-26T03:28:33.353Z,3.38
2023-01-26T03:31:00.453Z,3.18
2023-01-26T03:33:30.203Z,3.34
2023-01-26T03:35:57.129Z,3.71
2023-01-26T03:38:24.381Z,4.17
2023-01-26T03:41:16.887Z,4.26
2023-01-26T03:44:02.395Z,4.58
2023-01-26T03:46:48.039Z,4.79
2023-01-26T03:49:34.132Z,4.87
2023-01-26T03:52:19.793Z,4.41
2023-01-26T03:55:06.515Z,4.05
2023-01-26T03:57:33.469Z,3.91
2023-01-26T04:00:00.468Z,4.20
2023-01-26T04:02:46.710Z,4.42
2023-01-26T04:05:32.234Z,4.35
2023-01-26T04:08:27.037Z,4.28
2023-01-26T04:11:02.357Z,4.48
2023-01-26T04:13:48.444Z,4.07
2023-01-26T04:16:41.208Z,4.19
2023-01-26T04:19:27.399Z,4.22
2023-01-26T04:21:54.263Z,4.55
2023-01-26T04:24:22.622Z,4.65
2023-01-26T04:26:54.037Z,4.52
2023-01-26T04:29:25.858Z,4.28
2023-01-26T04:31:52.762Z,3.88
2023-01-26T04:34:22.147Z,3.35
2023-01-26T04:36:49.578Z,3.27
2023-01-26T04:39:17.708Z,3.38
2023-01-26T04:41:48.174Z,3.62
2023-01-26T04:44:17.044Z,4.01
2023-01-26T04:46:44.443Z,4.20
2023-01-26T04:49:13.558Z,4.48
2023-01-26T04:51:40.886Z,4.58
2023-01-26T04:54:08.329Z,4.03
2023-01-26T04:56:39.183Z,4.16
2023-01-26T04:59:08.120Z,4.49
2023-01-26T05:01:39.673Z,4.70
2023-01-26T05:04:07.827Z,4.87
2023-01-26T05:06:36.377Z,4.89
2023-01-26T05:09:03.525Z,4.88
2023-01-26T05:11:32.563Z,5.16
2023-01-26T05:14:20.712Z,5.42
2023-01-26T05:17:09.506Z,5.13
2023-01-26T05:19:42.229Z,4.94
2023-01-26T05:22:21.053Z,5.31
2023-01-26T05:25:26.496Z,5.15
2023-01-26T05:28:09.739Z,5.33
2023-01-26T05:30:36.843Z,5.43
2023-01-26T05:33:06.769Z,5.46
2023-01-26T05:35:35.004Z,5.32
2023-01-26T05:38:03.173Z,5.33
2023-01-26T05:40:32.330Z,5.24
2023-01-26T05:43:00.203Z,5.16
2023-01-26T05:45:45.318Z,4.80
2023-01-26T05:48:14.295Z,4.08
2023-01-26T05:50:41.415Z,3.62
2023-01-26T05:53:17.019Z,3.19
2023-01-26T05:55:44.415Z,2.73
2023-01-26T05:58:11.774Z,2.57
2023-01-26T06:00:40.514Z,2.74
2023-01-26T06:03:19.635Z,2.92
2023-01-26T06:05:53.948Z,2.99
2023-01-26T06:08:43.489Z,3.12
2023-01-26T06:11:28.805Z,3.08
2023-01-26T06:14:14.349Z,2.80
2023-01-26T06:16:41.702Z,3.05
2023-01-26T06:19:10.966Z,3.30
2023-01-26T06:21:38.773Z,3.50
2023-01-26T06:24:06.268Z,3.62
2023-01-26T06:26:33.331Z,3.73
2023-01-26T06:29:00.247Z,3.42
2023-01-26T06:31:30.868Z,3.52
2023-01-26T06:34:00.027Z,4.01
2023-01-26T06:36:28.403Z,4.38
2023-01-26T06:38:57.149Z,4.53
2023-01-26T06:41:24.886Z,4.67
2023-01-26T06:43:52.044Z,5.09
2023-01-26T06:46:19.725Z,5.02
2023-01-26T06:48:47.683Z,4.82
2023-01-26T06:51:15.611Z,4.95
2023-01-26T06:53:47.475Z,5.47
2023-01-26T06:56:38.071Z,5.74
2023-01-26T06:59:23.136Z,6.06
2023-01-26T07:02:20.965Z,6.37
2023-01-26T07:04:48.828Z,6.61
2023-01-26T07:07:15.827Z,7.01
2023-01-26T07:09:42.751Z,6.18
2023-01-26T07:12:09.637Z,6.48
2023-01-26T07:14:36.714Z,7.23
2023-01-26T07:17:03.854Z,7.52
2023-01-26T07:19:33.267Z,6.98
2023-01-26T07:22:01.380Z,7.01
2023-01-26T07:24:28.989Z,6.69
2023-01-26T07:26:57.027Z,7.08
2023-01-26T07:29:23.924Z,9.39
2023-01-26T07:31:51.372Z,10.85
2023-01-26T07:34:18.331Z,11.31
2023-01-26T07:36:45.666Z,10.33
2023-01-26T07:39:12.674Z,11.20
2023-01-26T07:41:39.563Z,11.01
2023-01-26T07:44:26.642Z,10.81
2023-01-26T07:46:54.724Z,9.72
2023-01-26T07:49:21.743Z,9.07
2023-01-26T07:51:48.594Z,9.15
2023-01-26T07:54:15.471Z,10.22
2023-01-26T07:56:44.276Z,11.00
2023-01-26T07:59:12.493Z,10.88
2023-01-26T08:01:39.611Z,10.98
2023-01-26T08:04:07.557Z,11.15
2023-01-26T08:06:34.458Z,12.35
2023-01-26T08:09:01.492Z,12.88
2023-01-26T08:11:28.476Z,13.13
2023-01-26T08:13:55.871Z,12.86
2023-01-26T08:16:23.036Z,12.92
2023-01-26T08:18:49.942Z,13.10
2023-01-26T08:21:18.271Z,12.59
2023-01-26T08:23:52.156Z,12.02
2023-01-26T08:26:20.681Z,12.17
2023-01-26T08:28:48.740Z,11.93
2023-01-26T08:31:20.022Z,12.07
2023-01-26T08:33:52.454Z,11.69
2023-01-26T08:36:22.346Z,10.92
2023-01-26T08:38:50.091Z,10.90
2023-01-26T08:41:17.477Z,9.61
2023-01-26T08:43:44.368Z,9.88
2023-01-26T08:46:11.460Z,10.52
2023-01-26T08:48:38.778Z,10.57
2023-01-26T08:51:07.824Z,10.51
2023-01-26T08:53:37.739Z,10.47
2023-01-26T08:56:06.472Z,10.32
2023-01-26T08:58:33.926Z,9.93
2023-01-26T09:01:08.821Z,10.00
2023-01-26T09:03:36.300Z,9.38
2023-01-26T09:06:05.143Z,9.70
2023-01-26T09:08:32.246Z,9.57
2023-01-26T09:10:59.404Z,9.46
2023-01-26T09:13:26.565Z,9.45
2023-01-26T09:15:53.959Z,9.75
2023-01-26T09:18:20.907Z,10.06
2023-01-26T09:20:47.917Z,9.64
2023-01-26T09:23:17.007Z,9.75
2023-01-26T09:25:44.318Z,10.06
2023-01-26T09:28:11.269Z,9.99
2023-01-26T09:30:38.222Z,9.73
2023-01-26T09:33:06.961Z,9.10
2023-01-26T09:35:34.187Z,9.02
2023-01-26T09:38:01.130Z,8.73
2023-01-26T09:41:06.335Z,8.29
2023-01-26T09:43:41.982Z,7.79
2023-01-26T09:46:23.950Z,7.70
2023-01-26T09:49:07.424Z,8.32
2023-01-26T09:52:03.813Z,8.45
2023-01-26T09:54:42.268Z,8.77
2023-01-26T09:57:15.684Z,8.87
2023-01-26T10:00:00.374Z,8.38
2023-01-26T10:02:56.212Z,8.47
2023-01-26T10:05:40.449Z,8.23
2023-01-26T10:08:13.290Z,7.85
2023-01-26T10:10:49.498Z,7.99
2023-01-26T10:13:17.612Z,8.17
2023-01-26T10:16:02.583Z,8.41
2023-01-26T10:18:33.676Z,8.67
2023-01-26T10:21:04.383Z,8.30
2023-01-26T10:23:35.798Z,8.35
2023-01-26T10:26:14.274Z,7.92
2023-01-26T10:28:43.801Z,8.41
2023-01-26T10:31:26.962Z,7.90
2023-01-26T10:33:59.882Z,7.71
2023-01-26T10:36:31.002Z,8.03
2023-01-26T10:39:06.628Z,8.76
2023-01-26T10:41:34.145Z,8.96
2023-01-26T10:44:40.131Z,8.95
2023-01-26T10:47:17.113Z,9.02
2023-01-26T10:49:44.435Z,8.65
2023-01-26T10:52:27.922Z,8.53
2023-01-26T10:55:21.207Z,8.16
2023-01-26T10:57:48.217Z,8.00
2023-01-26T11:00:23.864Z,7.81
2023-01-26T11:02:56.172Z,7.63
2023-01-26T11:05:27.074Z,7.59
2023-01-26T11:07:58.972Z,7.18
2023-01-26T11:10:28.599Z,7.24
2023-01-26T11:13:20.447Z,7.14
2023-01-26T11:16:01.553Z,6.92
2023-01-26T11:18:34.730Z,6.98
2023-01-26T11:21:18.675Z,7.05
2023-01-26T11:24:00.848Z,7.08
2023-01-26T11:26:45.695Z,7.06
2023-01-26T11:29:30.651Z,7.07
2023-01-26T11:32:03.907Z,7.10
2023-01-26T11:34:55.594Z,7.07
2023-01-26T11:37:56.209Z,7.08
2023-01-26T11:40:40.103Z,7.26
2023-01-26T11:43:13.725Z,7.45
2023-01-26T11:46:04.302Z,7.37
2023-01-26T11:49:01.969Z,7.28
2023-01-26T11:51:53.563Z,7.52
2023-01-26T11:54:36.308Z,7.45
2023-01-26T11:57:09.186Z,7.55
2023-01-26T11:59:45.686Z,7.53
2023-01-26T12:02:36.883Z,7.51
2023-01-26T12:05:12.762Z,7.50
2023-01-26T12:07:54.695Z,7.56
2023-01-26T12:10:31.615Z,7.48
2023-01-26T12:13:08.104Z,7.53
2023-01-26T12:15:38.534Z,7.74
2023-01-26T12:18:26.292Z,7.74
2023-01-26T12:21:11.829Z,7.65
2023-01-26T12:24:00.229Z,7.59
2023-01-26T12:26:32.377Z,7.63
2023-01-26T12:29:14.203Z,7.57
2023-01-26T12:31:45.949Z,7.61
2023-01-26T12:34:14.056Z,7.64
2023-01-26T12:36:53.052Z,7.73
2023-01-26T12:39:37.465Z,7.84
2023-01-26T12:42:43.775Z,7.57
2023-01-26T12:45:25.201Z,7.82
2023-01-26T12:48:07.863Z,8.16
2023-01-26T12:50:59.645Z,7.88
2023-01-26T12:53:49.623Z,7.93
2023-01-26T12:56:32.594Z,7.87
2023-01-26T12:59:07.056Z,7.77
2023-01-26T13:01:43.487Z,7.60
2023-01-26T13:04:16.061Z,7.67
2023-01-26T13:06:43.709Z,7.84
2023-01-26T13:09:16.551Z,7.67
2023-01-26T13:11:56.879Z,7.64
2023-01-26T13:14:50.038Z,7.68
2023-01-26T13:17:16.885Z,7.69
2023-01-26T13:19:43.682Z,7.87
2023-01-26T13:22:19.584Z,7.88
2023-01-26T13:24:49.740Z,8.09
2023-01-26T13:27:39.788Z,8.16
2023-01-26T13:30:21.950Z,8.39
2023-01-26T13:32:48.970Z,8.46
2023-01-26T13:35:20.800Z,8.32
2023-01-26T13:37:54.785Z,8.31
2023-01-26T13:40:31.105Z,8.46
2023-01-26T13:43:07.645Z,8.21
2023-01-26T13:45:56.023Z,8.23
2023-01-26T13:48:40.892Z,8.25
2023-01-26T13:51:13.143Z,8.41
2023-01-26T13:53:43.653Z,8.16
2023-01-26T13:56:27.210Z,8.27
2023-01-26T13:58:54.801Z,8.40
2023-01-26T14:01:21.818Z,8.34
2023-01-26T14:03:48.846Z,8.45
2023-01-26T14:06:22.717Z,8.12
2023-01-26T14:08:55.583Z,7.98
2023-01-26T14:11:26.832Z,8.07
2023-01-26T14:13:57.093Z,8.07
2023-01-26T14:16:36.279Z,7.95
2023-01-26T14:19:09.144Z,7.74
2023-01-26T14:21:49.132Z,7.72
2023-01-26T14:24:16.783Z,7.62
2023-01-26T14:26:43.941Z,7.81
2023-01-26T14:29:21.757Z,7.77
2023-01-26T14:31:50.238Z,7.86
2023-01-26T14:34:23.616Z,7.62
2023-01-26T14:37:14.597Z,7.67
2023-01-26T14:39:48.210Z,7.80
2023-01-26T14:42:20.359Z,7.97
2023-01-26T14:44:47.614Z,7.92
2023-01-26T14:47:33.629Z,7.78
2023-01-26T14:50:03.197Z,7.69
2023-01-26T14:52:39.803Z,7.76
2023-01-26T14:55:16.569Z,7.56
2023-01-26T14:57:43.591Z,7.41
2023-01-26T15:00:26.025Z,7.64
2023-01-26T15:02:56.525Z,7.58
2023-01-26T15:05:32.936Z,7.43
2023-01-26T15:08:26.961Z,7.42
2023-01-26T15:11:16.445Z,7.62
2023-01-26T15:13:45.777Z,7.82
2023-01-26T15:16:21.283Z,7.56
2023-01-26T15:18:59.656Z,7.67
2023-01-26T15:21:40.341Z,7.58
2023-01-26T15:24:14.297Z,7.76
2023-01-26T15:26:43.270Z,7.55
2023-01-26T15:29:36.640Z,7.72
2023-01-26T15:32:03.603Z,7.42
2023-01-26T15:34:38.792Z,7.44
2023-01-26T15:37:32.030Z,7.53
2023-01-26T15:39:59.560Z,7.66
2023-01-26T15:42:30.334Z,7.58
2023-01-26T15:44:57.854Z,7.36
2023-01-26T15:47:24.853Z,7.61
2023-01-26T15:49:52.173Z,7.58
2023-01-26T15:52:24.901Z,7.59
2023-01-26T15:54:54.068Z,7.71
2023-01-26T15:57:21.126Z,7.68
2023-01-26T15:59:48.107Z,7.82
2023-01-26T16:02:17.961Z,7.91
2023-01-26T16:04:45.439Z,7.60
2023-01-26T16:07:14.971Z,7.81
2023-01-26T16:09:42.697Z,7.65
2023-01-26T16:12:30.390Z,7.71
2023-01-26T16:14:58.161Z,7.94
2023-01-26T16:17:25.104Z,7.61
2023-01-26T16:19:52.046Z,7.51
2023-01-26T16:22:19.081Z,7.40
2023-01-26T16:24:47.201Z,7.25
2023-01-26T16:27:14.235Z,7.44
2023-01-26T16:29:41.252Z,7.60
2023-01-26T16:32:28.407Z,7.55
2023-01-26T16:34:55.332Z,7.74
2023-01-26T16:37:22.186Z,7.72
2023-01-26T16:39:49.106Z,7.64
2023-01-26T16:42:19.662Z,7.64
2023-01-26T16:44:47.193Z,7.60
2023-01-26T16:47:14.551Z,7.70
2023-01-26T16:49:41.423Z,7.77
2023-01-26T16:52:08.986Z,7.68
2023-01-26T16:54:35.944Z,7.78
2023-01-26T16:57:02.921Z,8.08
2023-01-26T16:59:30.263Z,7.79
2023-01-26T17:01:57.452Z,7.85
2023-01-26T17:04:24.516Z,7.76
2023-01-26T17:06:51.534Z,7.60
2023-01-26T17:09:18.479Z,7.71
2023-01-26T17:11:45.402Z,7.78
2023-01-26T17:14:13.233Z,7.97
2023-01-26T17:16:40.252Z,7.65
2023-01-26T17:19:09.145Z,7.75
2023-01-26T17:21:37.241Z,7.82
2023-01-26T17:24:04.623Z,7.77
2023-01-26T17:26:31.677Z,7.86
2023-01-26T17:28:58.623Z,7.99
2023-01-26T17:31:25.986Z,7.91
2023-01-26T17:33:54.777Z,7.72
2023-01-26T17:36:21.713Z,7.57
2023-01-26T17:38:49.444Z,7.71
2023-01-26T17:41:17.206Z,7.73
2023-01-26T17:43:44.285Z,7.93
2023-01-26T17:46:16.497Z,7.76
2023-01-26T17:48:45.337Z,7.94
2023-01-26T17:51:16.794Z,7.75
2023-01-26T17:53:46.250Z,7.81
2023-01-26T17:56:16.597Z,7.55
2023-01-26T17:58:48.360Z,7.75
2023-01-26T18:01:15.525Z,7.78
2023-01-26T18:03:43.387Z,7.87
2023-01-26T18:06:11.244Z,7.86
2023-01-26T18:08:39.203Z,7.99
2023-01-26T18:11:09.189Z,7.78
2023-01-26T18:13:36.457Z,7.79
2023-01-26T18:16:06.573Z,7.98
2023-01-26T18:18:33.963Z,7.76
2023-01-26T18:21:16.778Z,7.64
2023-01-26T18:23:45.255Z,7.81
2023-01-26T18:26:12.243Z,7.69
2023-01-26T18:28:43.227Z,7.96
2023-01-26T18:31:11.721Z,7.99
2023-01-26T18:33:38.672Z,8.12
2023-01-26T18:36:09.471Z,8.20
2023-01-26T18:38:39.917Z,7.92
2023-01-26T18:41:15.092Z,7.74
2023-01-26T18:43:43.104Z,7.75
2023-01-26T18:46:10.299Z,7.69
2023-01-26T18:48:37.468Z,7.72
2023-01-26T18:51:05.043Z,7.75
2023-01-26T18:53:31.966Z,7.86
2023-01-26T18:56:05.034Z,7.69
2023-01-26T18:58:32.993Z,7.72
2023-01-26T19:01:01.217Z,7.80
2023-01-26T19:03:28.125Z,7.64
2023-01-26T19:05:55.039Z,7.61
2023-01-26T19:08:25.060Z,7.62
2023-01-26T19:10:52.204Z,7.69
2023-01-26T19:13:19.088Z,7.77
2023-01-26T19:15:47.692Z,7.95
2023-01-26T19:18:15.495Z,7.83
2023-01-26T19:20:42.552Z,7.80
2023-01-26T19:23:10.284Z,7.77
2023-01-26T19:25:37.801Z,7.79
2023-01-26T19:28:05.124Z,7.77
2023-01-26T19:30:33.325Z,7.69
2023-01-26T19:33:18.869Z,7.53
2023-01-26T19:35:45.996Z,7.79
2023-01-26T19:38:13.108Z,7.88
2023-01-26T19:40:40.058Z,7.75
2023-01-26T19:43:07.023Z,8.09
2023-01-26T19:45:33.938Z,8.11
2023-01-26T19:48:00.836Z,8.02
2023-01-26T19:50:27.778Z,8.00
2023-01-26T19:52:54.755Z,7.64
2023-01-26T19:55:21.685Z,7.80
2023-01-26T19:57:48.620Z,7.76
2023-01-26T20:00:16.329Z,7.88
2023-01-26T20:02:43.368Z,7.90
2023-01-26T20:05:10.546Z,7.58
2023-01-26T20:07:37.866Z,7.69
2023-01-26T20:10:06.353Z,7.55
2023-01-26T20:12:33.628Z,7.62
2023-01-26T20:15:00.899Z,7.73
2023-01-26T20:17:27.984Z,7.55
2023-01-26T20:19:56.156Z,7.61
2023-01-26T20:22:24.303Z,7.64
2023-01-26T20:24:51.227Z,7.56
2023-01-26T20:27:18.192Z,7.65
2023-01-26T20:29:45.117Z,7.63
2023-01-26T20:32:12.125Z,7.89
2023-01-26T20:34:41.024Z,7.75
2023-01-26T20:37:08.895Z,7.71
2023-01-26T20:39:35.791Z,7.53
2023-01-26T20:42:02.721Z,7.66
2023-01-26T20:44:29.953Z,7.63
2023-01-26T20:46:56.935Z,7.66
2023-01-26T20:49:24.157Z,7.90
2023-01-26T20:51:51.252Z,7.79
2023-01-26T20:54:18.164Z,7.85
2023-01-26T20:56:50.358Z,7.91
2023-01-26T20:59:18.421Z,8.02
2023-01-26T21:01:45.381Z,8.25
2023-01-26T21:04:12.263Z,8.08
2023-01-26T21:06:39.759Z,8.02
2023-01-26T21:09:06.715Z,8.00
2023-01-26T21:11:34.625Z,8.15
2023-01-26T21:14:02.788Z,8.13
2023-01-26T21:16:31.441Z,8.07
2023-01-26T21:18:58.939Z,8.08
2023-01-26T21:21:26.259Z,8.09
2023-01-26T21:23:53.312Z,8.07
2023-01-26T21:26:23.236Z,7.97
2023-01-26T21:28:55.641Z,8.15
2023-01-26T21:31:25.611Z,8.13
2023-01-26T21:33:53.447Z,7.92
2023-01-26T21:36:22.918Z,7.68
2023-01-26T21:38:52.204Z,7.64
2023-01-26T21:41:42.994Z,7.56
2023-01-26T21:44:12.878Z,7.75
2023-01-26T21:46:40.262Z,7.65
2023-01-26T21:49:08.227Z,7.72
2023-01-26T21:51:53.768Z,8.12
2023-01-26T21:54:20.783Z,7.95
2023-01-26T21:56:47.748Z,7.79
2023-01-26T21:59:16.309Z,7.88
2023-01-26T22:01:46.077Z,7.89
2023-01-26T22:04:16.688Z,7.99
2023-01-26T22:06:43.789Z,7.76
2023-01-26T22:09:12.581Z,7.85
2023-01-26T22:11:39.847Z,7.95
2023-01-26T22:14:08.340Z,8.02
2023-01-26T22:16:35.263Z,7.60
2023-01-26T22:19:02.203Z,7.94
2023-01-26T22:21:29.260Z,7.99
2023-01-26T22:23:56.190Z,7.91
2023-01-26T22:26:23.440Z,7.82
2023-01-26T22:28:52.757Z,7.64
2023-01-26T22:31:22.587Z,7.83
2023-01-26T22:33:50.376Z,7.94
2023-01-26T22:36:17.499Z,7.93
2023-01-26T22:38:45.426Z,7.95
2023-01-26T22:41:19.821Z,7.78
2023-01-26T22:43:51.388Z,7.79
2023-01-26T22:46:20.807Z,8.09
2023-01-26T22:48:48.381Z,7.90
2023-01-26T22:51:21.035Z,7.88
2023-01-26T22:53:52.708Z,7.59
2023-01-26T22:56:20.191Z,7.94
2023-01-26T22:58:58.446Z,7.65
2023-01-26T23:01:28.448Z,7.82
2023-01-26T23:03:56.395Z,7.99
2023-01-26T23:06:24.293Z,8.03
2023-01-26T23:08:51.318Z,7.88
2023-01-26T23:11:23.666Z,7.63
2023-01-26T23:13:52.648Z,7.65
2023-01-26T23:16:21.437Z,7.65
2023-01-26T23:18:48.419Z,7.74
2023-01-26T23:21:15.415Z,7.55
2023-01-26T23:23:42.461Z,7.73
2023-01-26T23:26:10.087Z,7.93
2023-01-26T23:28:40.256Z,7.83
2023-01-26T23:31:08.389Z,7.63
2023-01-26T23:33:36.475Z,7.91
2023-01-26T23:36:04.729Z,7.85
2023-01-26T23:38:32.133Z,7.78
2023-01-26T23:41:00.617Z,7.85
2023-01-26T23:43:27.880Z,7.71
2023-01-26T23:45:56.747Z,7.91
2023-01-26T23:48:24.760Z,8.05
2023-01-26T23:51:00.209Z,8.01
2023-01-26T23:53:28.469Z,7.90
2023-01-26T23:55:57.560Z,8.04
2023-01-26T23:58:24.738Z,8.09
